Lodz, Poland

11:31 PM CET on February 07, 2016 (GMT +0100)
Lublinek | | Change Station
CLOSE
Current Station
Airport
Location: Lublinek,
Elevation: 604 ft
Nearby Weather Stations

Elev 604 ft 51.72 °N, 19.40 °E | Updated 31 minutes ago

Clear
Clear
43 °F
Feels Like 38 °F
N
9
Wind Variable Wind from South

Today
High -- | Low -- °F
--% Chance of Precip.
Yesterday
High -- | Low -- °F
Precip. -- in
Pressure 29.74 in
Visibility -9999.0 miles
Clouds
Windchill 38 °F
Dew Point 36 °F
Humidity 76%
Rainfall 0.00 in
Snow Depth Not available.
7:12 AM 4:41 PM
Waning Crescent, 1% visible
METAR EPLL 072200Z 19008KT CAVOK 06/02 Q1007
Pressure 29.74 in
Visibility -9999.0 miles
Clouds
Windchill 38 °F
Dew Point 36 °F
Humidity 76%
Rainfall 0.00 in
Snow Depth Not available.
7:12 AM 4:41 PM
Waning Crescent, 1% visible
METAR EPLL 072200Z 19008KT CAVOK 06/02 Q1007

10-Day Weather Forecast

Almanac

Astronomy

Feb. 07, 2016 Rise Set
Actual Time
Civil Twilight
Nautical Twilight
Astronomical Twilight
Moon
Length of Visible Light
Length of Day
Tomorrow will be .
, % of the Moon is Illuminated

Today's Extremes

Country Highs Country Lows

Community

WunderPhotos

Upload Photos

1,891,324 photos uploaded!

WunderBlog® & News

Nearby

Air Quality

  Air Quality AQ Index Pollutant
Not available.

Snow Depth

Station Depth Elevation

Earthquake Activity

City Distance Mag. Time & Date
Minimum magnitude displayed is 2.5.

Coastal Water Temperatures

Place Temperature

Stations

Nearby Weather Stations

Station Location Temp. Windchill Dew Point Humidity Wind Precip. Elev Updated Type